LiveATC.Net - Listen to live air traffic control over the Internet! Contact for advertising information

ICAO: KISM  IATA: ISM   Airport: Kissimmee Gateway Airport
City: Orlando   State/Province: Florida
Country: United States   Continent: North America
KISM METAR Weather: KISM 041650Z 26004KT 7SM BKN015 BKN028 23/19 A2973
KISM Flight Activity (FlightAware)
KISM Airport Info   (AirNav) (iFlightPlanner)
KISM VFR Sectional Chart   (iFlightPlanner) 
KISM IFR Low Chart   (iFlightPlanner) 
KISM Del/Gnd/Twr
Feed Status: DOWN
Last heard on: 2015-05-05 21:45:03 (151 days 19 hours 20 minutes ago)
KISM Del/Gnd/Twr Audio Archives
Kissimmee Ground/Clearance Delivery121.700
Kissimmee Tower/CTAF124.450


Unauthorized use prohibited. See Terms of Service

Find LiveATC Audio Streams

Airport/ARTCC Code

(e.g., 124.400, 128.75)
Site-wide search

Browse LiveATC Feeds
LiveATC Coverage Map
Top 50 LiveATC Feeds
Bad Weather Areas

Offer a LiveATC Feed
Press Inquiries

LiveATC on iPhone
LiveATC on Android

LiveATC Mobile
(Mobile browser)

ATC Audio Archives
Interesting Recordings

LiveATC Forums

Home Page
Make a Donation
LiveATC Bookstore

Terms of Use
Privacy Policy

ATC/Radar Sites
U.S. ARTCC Freqs
Canadian Air Freqs


FAA Airport Status
Nat'l Airspace Status
Arrival Demand Charts

Server Software By:

Please make a donation to help us keep growing!